Thunder radar more information blitzortung!


Rain radar more information rain snow radar


Visit our other weather sites:

Template documentation
and downloads

And another site



There are no active watches, warnings or advisories

Nearby METAR Reports

   
EHVK - Volkel Rnlafb, Netherlands
Distance from station: SW 11 mi
Updated: May 21 2019 8:55 am
Overcast  
Overcast  
   Wind: WNW 9.2 mph
Wind: WNW 9.2 mph
Temperature: 55.4°F
Dew Point: 50°F
Humidity: 82%
Barometer: 29.94 inHg
Clouds: Overcast
Visibility: More than 6 mi
Cloud details: Overcast 1100 ft
EHVK 211255Z AUTO 29008KT 270V340 9999 OVC011 13/10 Q1014 GRN 31008KT 9999 BKN008 BECMG 30010KT SCT012 BKN015
EDLV - Niederrhein, Germany
Distance from station: SE 15 mi
Updated: May 21 2019 8:50 am
Mostly Cloudy  
Mostly Cloudy  
   Wind: NW 11.5 mph
Wind: NW 11.5 mph
Temperature: 55.4°F
Dew Point: 51.8°F
Humidity: 88%
Barometer: 29.94 inHg
Clouds: Mostly Cloudy
Visibility: More than 6 mi
Cloud details: Mostly Cloudy 900 ft
EDLV 211250Z 31010KT 280V340 9999 BKN009 13/11 Q1014
EHDL - Deelen Rnlafb, Netherlands
Distance from station: N 22 mi
Updated: May 21 2019 8:55 am
Overcast  
Overcast  
   Wind: WNW 12.7 mph
Wind: WNW 12.7 mph
Temperature: 55.4°F
Dew Point: 51.8°F
Humidity: 88%
Barometer: 29.94 inHg
Clouds: Overcast
Visibility: More than 6 mi
Cloud details: Overcast 700 ft
EHDL 211255Z AUTO 30011KT 260V360 9999 OVC007 13/11 Q1014 GRN
EHEH - Eindhoven Rnlafb, Netherlands
Distance from station: SW 30 mi
Updated: May 21 2019 8:55 am
Overcast  
Overcast  
   Wind: NW 13.8 mph
Wind: NW 13.8 mph
Temperature: 59°F
Dew Point: 50°F
Humidity: 72%
Barometer: 29.97 inHg
Clouds: Overcast
Visibility: More than 6 mi
Cloud details: Partly Cloudy 1800 ft,
Mostly Cloudy 2400 ft,
Overcast 8200 ft
EHEH 211255Z AUTO 31012KT 240V020 9999 SCT018 BKN024 OVC082 15/10 Q1015 WHT 30012KT 9999 SCT017 SCT020 BKN070
EHGR - Gilze-Rijen Rnla, Netherlands
Distance from station: WSW 43 mi
Updated: May 21 2019 8:55 am
Overcast  
Overcast  
   Wind: WNW 17.3 mph
Wind: WNW 17.3 mph
Temperature: 62.6°F
Dew Point: 48.2°F
Humidity: 59%
Barometer: 29.97 inHg
Clouds: Overcast
Visibility: More than 6 mi
Cloud details: Mostly Cloudy 2300 ft,
Mostly Cloudy 2700 ft,
Overcast 20000 ft
EHGR 211255Z AUTO 30015KT 260V030 9999 BKN023 BKN027 OVC200 17/09 Q1015 WHT 31011KT 9999 BKN020
EBBL - Kleine-Brogel(Ba, Belgium
Distance from station: SSW 44 mi
Updated: May 21 2019 8:25 am
Mostly Cloudy  
Mostly Cloudy  
   Wind: NW 6.9 mph
Wind: NW 6.9 mph
Temperature: 59°F
Dew Point: 50°F
Humidity: 72%
Barometer: 29.97 inHg
Clouds: Mostly Cloudy
Visibility: More than 6 mi
Cloud details: Partly Cloudy 1700 ft,
Mostly Cloudy 2100 ft
EBBL 211225Z 31006KT 9999 SCT017 BKN021 15/10 Q1015 WHT WHT TEMPO BLU

Script developed by  Saratoga-weather.org Adapted for the template by  Weerstation Leuven

You find our weather info also at:

Weather Underground

AWEKAS

Citizen Weather Observer Program (CWOP)

HAMweather, WeatherForYou, PWS Weather

Equipment we use:

Weather-station
Davis VP2

Weather-program
Weather Display

Weather-server
HP ProDesk 600 G1

Provider
1&1 IONOS

Davis VP2

Weather Display

HP ProDesk 600 G1

1&1 IONOS